sensor_id;sensor_type;location;lat;lon;timestamp;P1;durP1;ratioP1;P2;durP2;ratioP2
38557;SDS011;24333;42.626;23.308;2023-08-01T00:01:49;1.98;;;1.50;;
38557;SDS011;24333;42.626;23.308;2023-08-01T00:04:14;6.32;;;1.80;;
38557;SDS011;24333;42.626;23.308;2023-08-01T00:06:39;3.75;;;1.70;;
38557;SDS011;24333;42.626;23.308;2023-08-01T00:09:05;2.97;;;1.65;;
38557;SDS011;24333;42.626;23.308;2023-08-01T00:11:30;2.45;;;1.58;;
38557;SDS011;24333;42.626;23.308;2023-08-01T00:13:56;3.17;;;1.65;;
38557;SDS011;24333;42.626;23.308;2023-08-01T00:16:21;2.90;;;1.50;;
38557;SDS011;24333;42.626;23.308;2023-08-01T00:18:47;2.55;;;1.70;;
38557;SDS011;24333;42.626;23.308;2023-08-01T00:21:12;2.80;;;1.70;;
38557;SDS011;24333;42.626;23.308;2023-08-01T00:23:38;1.85;;;1.60;;
38557;SDS011;24333;42.626;23.308;2023-08-01T00:26:03;2.42;;;1.70;;
38557;SDS011;24333;42.626;23.308;2023-08-01T00:28:29;2.78;;;1.63;;
38557;SDS011;24333;42.626;23.308;2023-08-01T00:31:02;4.18;;;1.60;;
38557;SDS011;24333;42.626;23.308;2023-08-01T00:35:57;3.15;;;1.77;;
38557;SDS011;24333;42.626;23.308;2023-08-01T00:38:22;2.60;;;1.60;;
38557;SDS011;24333;42.626;23.308;2023-08-01T00:40:48;2.83;;;1.77;;
38557;SDS011;24333;42.626;23.308;2023-08-01T00:43:16;3.58;;;2.25;;
38557;SDS011;24333;42.626;23.308;2023-08-01T00:45:42;3.70;;;2.25;;
38557;SDS011;24333;42.626;23.308;2023-08-01T00:48:07;3.15;;;2.10;;
38557;SDS011;24333;42.626;23.308;2023-08-01T00:50:33;3.47;;;1.67;;
38557;SDS011;24333;42.626;23.308;2023-08-01T00:52:59;2.35;;;2.00;;
38557;SDS011;24333;42.626;23.308;2023-08-01T00:55:25;3.15;;;2.08;;
38557;SDS011;24333;42.626;23.308;2023-08-01T00:57:52;2.80;;;1.95;;
38557;SDS011;24333;42.626;23.308;2023-08-01T01:00:18;2.42;;;1.50;;
38557;SDS011;24333;42.626;23.308;2023-08-01T01:02:43;2.40;;;1.50;;
38557;SDS011;24333;42.626;23.308;2023-08-01T01:05:09;2.88;;;1.77;;
38557;SDS011;24333;42.626;23.308;2023-08-01T01:07:35;2.42;;;1.58;;
38557;SDS011;24333;42.626;23.308;2023-08-01T01:10:04;3.50;;;1.95;;
38557;SDS011;24333;42.626;23.308;2023-08-01T01:12:30;2.45;;;1.60;;
38557;SDS011;24333;42.626;23.308;2023-08-01T01:14:56;6.07;;;1.83;;
38557;SDS011;24333;42.626;23.308;2023-08-01T01:17:21;2.60;;;1.75;;
38557;SDS011;24333;42.626;23.308;2023-08-01T01:19:46;3.28;;;1.67;;
38557;SDS011;24333;42.626;23.308;2023-08-01T01:22:12;2.72;;;2.15;;
38557;SDS011;24333;42.626;23.308;2023-08-01T01:24:42;3.08;;;1.92;;
38557;SDS011;24333;42.626;23.308;2023-08-01T01:27:07;4.47;;;2.30;;
38557;SDS011;24333;42.626;23.308;2023-08-01T01:29:34;3.97;;;2.35;;
38557;SDS011;24333;42.626;23.308;2023-08-01T01:32:01;2.70;;;2.20;;
38557;SDS011;24333;42.626;23.308;2023-08-01T01:34:28;3.22;;;2.40;;
38557;SDS011;24333;42.626;23.308;2023-08-01T01:36:53;3.13;;;2.15;;
38557;SDS011;24333;42.626;23.308;2023-08-01T01:39:19;3.33;;;1.83;;
38557;SDS011;24333;42.626;23.308;2023-08-01T01:41:45;2.90;;;1.73;;
38557;SDS011;24333;42.626;23.308;2023-08-01T01:44:10;3.22;;;2.10;;
38557;SDS011;24333;42.626;23.308;2023-08-01T01:46:36;3.50;;;2.22;;
38557;SDS011;24333;42.626;23.308;2023-08-01T01:49:01;3.47;;;2.30;;
38557;SDS011;24333;42.626;23.308;2023-08-01T01:51:29;4.20;;;2.20;;
38557;SDS011;24333;42.626;23.308;2023-08-01T01:53:55;2.38;;;1.75;;
38557;SDS011;24333;42.626;23.308;2023-08-01T01:56:20;4.03;;;2.33;;
38557;SDS011;24333;42.626;23.308;2023-08-01T01:58:46;2.72;;;1.88;;
38557;SDS011;24333;42.626;23.308;2023-08-01T02:01:11;3.90;;;2.22;;
38557;SDS011;24333;42.626;23.308;2023-08-01T02:03:36;2.83;;;1.70;;
38557;SDS011;24333;42.626;23.308;2023-08-01T02:06:02;3.15;;;1.77;;
38557;SDS011;24333;42.626;23.308;2023-08-01T02:08:28;4.45;;;1.90;;
38557;SDS011;24333;42.626;23.308;2023-08-01T02:10:54;2.97;;;2.22;;
38557;SDS011;24333;42.626;23.308;2023-08-01T02:13:23;4.90;;;1.90;;
38557;SDS011;24333;42.626;23.308;2023-08-01T02:15:48;2.55;;;1.85;;
38557;SDS011;24333;42.626;23.308;2023-08-01T02:18:14;4.05;;;2.10;;
38557;SDS011;24333;42.626;23.308;2023-08-01T02:20:39;2.28;;;1.58;;
38557;SDS011;24333;42.626;23.308;2023-08-01T02:23:05;3.28;;;1.88;;
38557;SDS011;24333;42.626;23.308;2023-08-01T02:28:19;2.53;;;1.48;;
38557;SDS011;24333;42.626;23.308;2023-08-01T02:30:44;2.40;;;1.65;;
38557;SDS011;24333;42.626;23.308;2023-08-01T02:33:09;2.30;;;1.70;;
38557;SDS011;24333;42.626;23.308;2023-08-01T02:35:35;2.90;;;1.90;;
38557;SDS011;24333;42.626;23.308;2023-08-01T02:38:01;2.38;;;1.85;;
38557;SDS011;24333;42.626;23.308;2023-08-01T02:40:28;2.95;;;1.70;;
38557;SDS011;24333;42.626;23.308;2023-08-01T02:42:53;4.32;;;1.77;;
38557;SDS011;24333;42.626;23.308;2023-08-01T02:45:19;1.92;;;1.40;;
38557;SDS011;24333;42.626;23.308;2023-08-01T02:47:44;7.07;;;1.80;;
38557;SDS011;24333;42.626;23.308;2023-08-01T02:50:09;2.22;;;1.70;;
38557;SDS011;24333;42.626;23.308;2023-08-01T02:52:35;3.72;;;1.83;;
38557;SDS011;24333;42.626;23.308;2023-08-01T02:55:00;1.83;;;1.50;;
38557;SDS011;24333;42.626;23.308;2023-08-01T02:57:26;6.70;;;1.73;;
38557;SDS011;24333;42.626;23.308;2023-08-01T02:59:51;2.42;;;1.60;;
38557;SDS011;24333;42.626;23.308;2023-08-01T03:02:16;2.08;;;1.48;;
38557;SDS011;24333;42.626;23.308;2023-08-01T03:04:42;1.67;;;1.50;;
38557;SDS011;24333;42.626;23.308;2023-08-01T03:07:07;2.55;;;1.60;;
38557;SDS011;24333;42.626;23.308;2023-08-01T03:09:33;2.95;;;1.60;;
38557;SDS011;24333;42.626;23.308;2023-08-01T03:11:58;3.92;;;1.50;;
38557;SDS011;24333;42.626;23.308;2023-08-01T03:17:17;2.47;;;1.67;;
38557;SDS011;24333;42.626;23.308;2023-08-01T03:23:06;2.17;;;1.60;;
38557;SDS011;24333;42.626;23.308;2023-08-01T03:26:07;2.42;;;1.67;;
38557;SDS011;24333;42.626;23.308;2023-08-01T04:24:19;2.83;;;1.50;;
38557;SDS011;24333;42.626;23.308;2023-08-01T04:37:20;6.50;;;1.80;;
38557;SDS011;24333;42.626;23.308;2023-08-01T05:46:19;8.02;;;2.70;;
38557;SDS011;24333;42.626;23.308;2023-08-01T05:48:45;6.93;;;2.83;;
38557;SDS011;24333;42.626;23.308;2023-08-01T05:51:11;15.13;;;3.20;;
38557;SDS011;24333;42.626;23.308;2023-08-01T05:53:36;12.82;;;2.63;;
38557;SDS011;24333;42.626;23.308;2023-08-01T05:56:02;4.90;;;2.55;;
38557;SDS011;24333;42.626;23.308;2023-08-01T05:58:28;4.13;;;2.47;;
38557;SDS011;24333;42.626;23.308;2023-08-01T06:00:53;4.35;;;2.35;;
38557;SDS011;24333;42.626;23.308;2023-08-01T06:03:19;4.85;;;2.33;;
38557;SDS011;24333;42.626;23.308;2023-08-01T06:05:45;4.88;;;1.92;;
38557;SDS011;24333;42.626;23.308;2023-08-01T06:08:10;4.75;;;2.35;;
38557;SDS011;24333;42.626;23.308;2023-08-01T06:10:41;4.15;;;1.90;;
38557;SDS011;24333;42.626;23.308;2023-08-01T06:15:45;4.00;;;2.30;;
38557;SDS011;24333;42.626;23.308;2023-08-01T06:18:11;9.35;;;2.50;;
38557;SDS011;24333;42.626;23.308;2023-08-01T06:23:12;3.75;;;1.90;;
38557;SDS011;24333;42.626;23.308;2023-08-01T06:25:41;3.55;;;2.35;;
38557;SDS011;24333;42.626;23.308;2023-08-01T06:28:07;6.22;;;2.33;;
38557;SDS011;24333;42.626;23.308;2023-08-01T07:04:12;3.47;;;1.88;;
38557;SDS011;24333;42.626;23.308;2023-08-01T07:06:39;3.70;;;2.08;;
38557;SDS011;24333;42.626;23.308;2023-08-01T07:09:09;4.50;;;2.10;;
38557;SDS011;24333;42.626;23.308;2023-08-01T07:11:35;5.85;;;1.42;;
38557;SDS011;24333;42.626;23.308;2023-08-01T07:17:22;3.90;;;1.95;;
38557;SDS011;24333;42.626;23.308;2023-08-01T07:22:58;1.92;;;1.45;;
38557;SDS011;24333;42.626;23.308;2023-08-01T07:28:13;2.45;;;1.52;;
38557;SDS011;24333;42.626;23.308;2023-08-01T07:30:39;3.25;;;1.70;;
38557;SDS011;24333;42.626;23.308;2023-08-01T07:33:04;3.50;;;2.03;;
38557;SDS011;24333;42.626;23.308;2023-08-01T07:35:29;3.58;;;1.92;;
38557;SDS011;24333;42.626;23.308;2023-08-01T07:38:10;2.15;;;1.38;;
38557;SDS011;24333;42.626;23.308;2023-08-01T07:40:40;9.40;;;1.63;;
38557;SDS011;24333;42.626;23.308;2023-08-01T07:45:59;3.17;;;1.73;;
38557;SDS011;24333;42.626;23.308;2023-08-01T07:48:30;2.28;;;1.48;;
38557;SDS011;24333;42.626;23.308;2023-08-01T07:50:56;7.10;;;1.80;;
38557;SDS011;24333;42.626;23.308;2023-08-01T07:53:21;2.80;;;1.65;;
38557;SDS011;24333;42.626;23.308;2023-08-01T07:55:47;4.03;;;1.90;;
38557;SDS011;24333;42.626;23.308;2023-08-01T07:58:12;5.82;;;1.80;;
38557;SDS011;24333;42.626;23.308;2023-08-01T08:00:37;8.88;;;2.30;;
38557;SDS011;24333;42.626;23.308;2023-08-01T08:03:03;3.95;;;1.83;;
38557;SDS011;24333;42.626;23.308;2023-08-01T08:05:33;2.83;;;1.50;;
38557;SDS011;24333;42.626;23.308;2023-08-01T08:08:01;3.80;;;1.80;;
38557;SDS011;24333;42.626;23.308;2023-08-01T08:10:27;7.70;;;1.92;;
38557;SDS011;24333;42.626;23.308;2023-08-01T08:12:53;7.45;;;2.38;;
38557;SDS011;24333;42.626;23.308;2023-08-01T08:15:19;7.72;;;1.88;;
38557;SDS011;24333;42.626;23.308;2023-08-01T08:17:45;4.20;;;1.75;;
38557;SDS011;24333;42.626;23.308;2023-08-01T08:20:26;4.72;;;1.40;;
38557;SDS011;24333;42.626;23.308;2023-08-01T08:25:51;2.13;;;1.73;;
38557;SDS011;24333;42.626;23.308;2023-08-01T08:28:27;2.65;;;1.52;;
38557;SDS011;24333;42.626;23.308;2023-08-01T08:30:57;3.70;;;1.95;;
38557;SDS011;24333;42.626;23.308;2023-08-01T08:33:24;2.33;;;1.48;;
38557;SDS011;24333;42.626;23.308;2023-08-01T08:35:50;3.35;;;1.83;;
38557;SDS011;24333;42.626;23.308;2023-08-01T08:38:16;4.22;;;2.10;;
38557;SDS011;24333;42.626;23.308;2023-08-01T08:40:46;3.42;;;1.95;;
38557;SDS011;24333;42.626;23.308;2023-08-01T08:43:34;3.22;;;1.90;;
38557;SDS011;24333;42.626;23.308;2023-08-01T09:11:53;2.92;;;1.77;;
38557;SDS011;24333;42.626;23.308;2023-08-01T09:14:21;3.65;;;1.70;;
38557;SDS011;24333;42.626;23.308;2023-08-01T09:16:47;2.83;;;1.77;;
38557;SDS011;24333;42.626;23.308;2023-08-01T09:19:16;1.90;;;1.58;;
38557;SDS011;24333;42.626;23.308;2023-08-01T09:21:49;5.70;;;2.30;;
38557;SDS011;24333;42.626;23.308;2023-08-01T09:30:10;2.78;;;2.30;;
38557;SDS011;24333;42.626;23.308;2023-08-01T09:50:23;3.50;;;1.90;;
38557;SDS011;24333;42.626;23.308;2023-08-01T09:52:49;2.42;;;1.98;;
38557;SDS011;24333;42.626;23.308;2023-08-01T09:57:59;3.75;;;2.30;;
38557;SDS011;24333;42.626;23.308;2023-08-01T10:00:29;4.32;;;1.83;;
38557;SDS011;24333;42.626;23.308;2023-08-01T10:02:58;2.65;;;1.77;;
38557;SDS011;24333;42.626;23.308;2023-08-01T10:05:31;4.78;;;2.17;;
38557;SDS011;24333;42.626;23.308;2023-08-01T10:07:59;5.97;;;2.15;;
38557;SDS011;24333;42.626;23.308;2023-08-01T10:10:26;2.95;;;1.80;;
38557;SDS011;24333;42.626;23.308;2023-08-01T10:12:52;3.25;;;1.98;;
38557;SDS011;24333;42.626;23.308;2023-08-01T10:15:19;3.13;;;1.88;;
38557;SDS011;24333;42.626;23.308;2023-08-01T10:17:45;3.15;;;2.22;;
38557;SDS011;24333;42.626;23.308;2023-08-01T10:20:10;2.78;;;1.85;;
38557;SDS011;24333;42.626;23.308;2023-08-01T10:22:37;7.72;;;2.03;;
38557;SDS011;24333;42.626;23.308;2023-08-01T10:25:05;2.53;;;2.17;;
38557;SDS011;24333;42.626;23.308;2023-08-01T10:27:31;3.47;;;2.13;;
38557;SDS011;24333;42.626;23.308;2023-08-01T10:30:00;5.78;;;2.10;;
38557;SDS011;24333;42.626;23.308;2023-08-01T10:32:31;4.70;;;2.30;;
38557;SDS011;24333;42.626;23.308;2023-08-01T10:35:01;3.00;;;1.80;;
38557;SDS011;24333;42.626;23.308;2023-08-01T10:37:27;3.22;;;1.90;;
38557;SDS011;24333;42.626;23.308;2023-08-01T11:10:39;6.78;;;1.63;;
38557;SDS011;24333;42.626;23.308;2023-08-01T11:13:04;2.15;;;1.58;;
38557;SDS011;24333;42.626;23.308;2023-08-01T11:15:29;4.97;;;1.80;;
38557;SDS011;24333;42.626;23.308;2023-08-01T11:17:55;5.57;;;1.92;;
38557;SDS011;24333;42.626;23.308;2023-08-01T11:20:21;2.65;;;1.70;;
38557;SDS011;24333;42.626;23.308;2023-08-01T11:22:58;2.65;;;2.05;;
38557;SDS011;24333;42.626;23.308;2023-08-01T11:28:16;2.47;;;1.60;;
38557;SDS011;24333;42.626;23.308;2023-08-01T11:30:42;3.22;;;1.55;;
38557;SDS011;24333;42.626;23.308;2023-08-01T11:33:21;2.25;;;1.77;;
38557;SDS011;24333;42.626;23.308;2023-08-01T11:36:03;2.80;;;1.58;;
38557;SDS011;24333;42.626;23.308;2023-08-01T11:41:36;2.88;;;2.13;;
38557;SDS011;24333;42.626;23.308;2023-08-01T11:44:02;1.55;;;1.45;;
38557;SDS011;24333;42.626;23.308;2023-08-01T11:46:30;2.65;;;1.65;;
38557;SDS011;24333;42.626;23.308;2023-08-01T11:48:57;1.63;;;1.30;;
38557;SDS011;24333;42.626;23.308;2023-08-01T11:51:23;4.97;;;1.70;;
38557;SDS011;24333;42.626;23.308;2023-08-01T12:26:04;3.22;;;1.92;;
38557;SDS011;24333;42.626;23.308;2023-08-01T12:28:30;3.33;;;1.80;;
38557;SDS011;24333;42.626;23.308;2023-08-01T12:30:55;3.25;;;1.45;;
38557;SDS011;24333;42.626;23.308;2023-08-01T12:33:23;4.30;;;1.67;;
38557;SDS011;24333;42.626;23.308;2023-08-01T12:35:49;1.92;;;1.50;;
38557;SDS011;24333;42.626;23.308;2023-08-01T12:38:14;2.70;;;1.60;;
38557;SDS011;24333;42.626;23.308;2023-08-01T12:40:39;2.22;;;1.67;;
38557;SDS011;24333;42.626;23.308;2023-08-01T12:43:05;2.13;;;1.40;;
38557;SDS011;24333;42.626;23.308;2023-08-01T12:45:30;3.45;;;1.73;;
38557;SDS011;24333;42.626;23.308;2023-08-01T12:47:56;6.85;;;1.52;;
38557;SDS011;24333;42.626;23.308;2023-08-01T12:50:21;1.50;;;1.35;;
38557;SDS011;24333;42.626;23.308;2023-08-01T12:52:46;1.80;;;1.15;;
38557;SDS011;24333;42.626;23.308;2023-08-01T12:55:12;2.22;;;1.38;;
38557;SDS011;24333;42.626;23.308;2023-08-01T12:57:37;3.35;;;1.45;;
38557;SDS011;24333;42.626;23.308;2023-08-01T13:00:03;6.00;;;1.20;;
38557;SDS011;24333;42.626;23.308;2023-08-01T13:02:29;2.40;;;1.60;;
38557;SDS011;24333;42.626;23.308;2023-08-01T13:04:54;2.33;;;1.40;;
38557;SDS011;24333;42.626;23.308;2023-08-01T13:07:19;2.05;;;1.45;;
38557;SDS011;24333;42.626;23.308;2023-08-01T13:09:45;1.77;;;1.27;;
38557;SDS011;24333;42.626;23.308;2023-08-01T13:12:10;1.80;;;1.38;;
38557;SDS011;24333;42.626;23.308;2023-08-01T13:14:35;2.03;;;1.25;;
38557;SDS011;24333;42.626;23.308;2023-08-01T13:17:01;2.33;;;1.40;;
38557;SDS011;24333;42.626;23.308;2023-08-01T13:19:27;3.60;;;1.13;;
38557;SDS011;24333;42.626;23.308;2023-08-01T13:21:53;1.48;;;0.98;;
38557;SDS011;24333;42.626;23.308;2023-08-01T13:24:18;7.50;;;1.77;;
38557;SDS011;24333;42.626;23.308;2023-08-01T13:26:44;4.63;;;1.98;;
38557;SDS011;24333;42.626;23.308;2023-08-01T13:29:09;4.53;;;2.25;;
38557;SDS011;24333;42.626;23.308;2023-08-01T13:31:41;2.38;;;1.30;;
38557;SDS011;24333;42.626;23.308;2023-08-01T13:34:07;4.53;;;1.13;;
38557;SDS011;24333;42.626;23.308;2023-08-01T13:36:33;1.73;;;1.20;;
38557;SDS011;24333;42.626;23.308;2023-08-01T13:38:58;3.38;;;1.60;;
38557;SDS011;24333;42.626;23.308;2023-08-01T13:41:24;1.58;;;1.02;;
38557;SDS011;24333;42.626;23.308;2023-08-01T13:43:49;4.03;;;1.25;;
38557;SDS011;24333;42.626;23.308;2023-08-01T13:46:16;4.15;;;1.60;;
38557;SDS011;24333;42.626;23.308;2023-08-01T13:48:44;1.73;;;1.27;;
38557;SDS011;24333;42.626;23.308;2023-08-01T13:51:11;1.65;;;1.30;;
38557;SDS011;24333;42.626;23.308;2023-08-01T13:53:37;2.45;;;1.40;;
38557;SDS011;24333;42.626;23.308;2023-08-01T13:56:06;2.00;;;1.20;;
38557;SDS011;24333;42.626;23.308;2023-08-01T13:58:32;1.80;;;1.10;;
38557;SDS011;24333;42.626;23.308;2023-08-01T14:01:01;3.50;;;1.85;;
38557;SDS011;24333;42.626;23.308;2023-08-01T14:03:28;2.95;;;1.30;;
38557;SDS011;24333;42.626;23.308;2023-08-01T14:05:53;1.10;;;0.90;;
38557;SDS011;24333;42.626;23.308;2023-08-01T14:08:18;2.67;;;1.58;;
38557;SDS011;24333;42.626;23.308;2023-08-01T14:10:44;2.15;;;1.42;;
38557;SDS011;24333;42.626;23.308;2023-08-01T14:13:09;1.20;;;1.00;;
38557;SDS011;24333;42.626;23.308;2023-08-01T14:15:34;1.13;;;0.95;;
38557;SDS011;24333;42.626;23.308;2023-08-01T14:18:00;1.73;;;1.15;;
38557;SDS011;24333;42.626;23.308;2023-08-01T14:20:25;3.10;;;1.23;;
38557;SDS011;24333;42.626;23.308;2023-08-01T14:22:51;2.53;;;1.35;;
38557;SDS011;24333;42.626;23.308;2023-08-01T14:25:16;3.15;;;1.30;;
38557;SDS011;24333;42.626;23.308;2023-08-01T14:27:41;1.45;;;0.95;;
38557;SDS011;24333;42.626;23.308;2023-08-01T14:30:07;1.10;;;0.95;;
38557;SDS011;24333;42.626;23.308;2023-08-01T14:32:32;2.63;;;1.38;;
38557;SDS011;24333;42.626;23.308;2023-08-01T14:34:58;2.40;;;1.20;;
38557;SDS011;24333;42.626;23.308;2023-08-01T14:37:23;1.55;;;1.20;;
38557;SDS011;24333;42.626;23.308;2023-08-01T14:39:50;1.08;;;0.85;;
38557;SDS011;24333;42.626;23.308;2023-08-01T14:42:16;2.05;;;1.20;;
38557;SDS011;24333;42.626;23.308;2023-08-01T14:44:41;1.55;;;1.13;;
38557;SDS011;24333;42.626;23.308;2023-08-01T14:47:07;1.83;;;1.33;;
38557;SDS011;24333;42.626;23.308;2023-08-01T14:49:32;4.53;;;1.25;;
38557;SDS011;24333;42.626;23.308;2023-08-01T14:51:58;2.40;;;1.40;;
38557;SDS011;24333;42.626;23.308;2023-08-01T14:54:23;1.20;;;1.10;;
38557;SDS011;24333;42.626;23.308;2023-08-01T14:56:50;1.33;;;1.13;;
38557;SDS011;24333;42.626;23.308;2023-08-01T14:59:16;4.13;;;1.23;;
38557;SDS011;24333;42.626;23.308;2023-08-01T15:01:41;1.83;;;1.10;;
38557;SDS011;24333;42.626;23.308;2023-08-01T15:04:07;1.33;;;0.82;;
38557;SDS011;24333;42.626;23.308;2023-08-01T15:06:35;5.60;;;1.23;;
38557;SDS011;24333;42.626;23.308;2023-08-01T15:09:00;1.48;;;1.00;;
38557;SDS011;24333;42.626;23.308;2023-08-01T15:11:26;1.45;;;1.08;;
38557;SDS011;24333;42.626;23.308;2023-08-01T15:13:51;1.65;;;1.20;;
38557;SDS011;24333;42.626;23.308;2023-08-01T15:16:17;3.40;;;1.20;;
38557;SDS011;24333;42.626;23.308;2023-08-01T15:18:42;5.43;;;1.38;;
38557;SDS011;24333;42.626;23.308;2023-08-01T15:23:49;2.15;;;1.17;;
38557;SDS011;24333;42.626;23.308;2023-08-01T15:26:14;1.42;;;1.05;;
38557;SDS011;24333;42.626;23.308;2023-08-01T15:28:40;3.80;;;1.35;;
38557;SDS011;24333;42.626;23.308;2023-08-01T15:31:06;2.55;;;1.20;;
38557;SDS011;24333;42.626;23.308;2023-08-01T15:33:33;2.70;;;1.38;;
38557;SDS011;24333;42.626;23.308;2023-08-01T15:36:00;2.40;;;1.42;;
38557;SDS011;24333;42.626;23.308;2023-08-01T15:38:27;2.38;;;1.25;;
38557;SDS011;24333;42.626;23.308;2023-08-01T15:40:52;1.85;;;1.10;;
38557;SDS011;24333;42.626;23.308;2023-08-01T15:43:18;6.25;;;1.60;;
38557;SDS011;24333;42.626;23.308;2023-08-01T15:45:45;4.10;;;1.60;;
38557;SDS011;24333;42.626;23.308;2023-08-01T15:48:10;1.83;;;1.17;;
38557;SDS011;24333;42.626;23.308;2023-08-01T15:50:35;2.05;;;1.40;;
38557;SDS011;24333;42.626;23.308;2023-08-01T15:53:01;6.07;;;1.23;;
38557;SDS011;24333;42.626;23.308;2023-08-01T15:55:26;3.83;;;1.80;;
38557;SDS011;24333;42.626;23.308;2023-08-01T15:57:52;4.93;;;1.90;;
38557;SDS011;24333;42.626;23.308;2023-08-01T16:00:17;6.00;;;2.70;;
38557;SDS011;24333;42.626;23.308;2023-08-01T16:02:42;3.80;;;2.13;;
38557;SDS011;24333;42.626;23.308;2023-08-01T16:05:08;2.67;;;2.20;;
38557;SDS011;24333;42.626;23.308;2023-08-01T16:07:35;4.45;;;2.75;;
38557;SDS011;24333;42.626;23.308;2023-08-01T16:10:00;2.53;;;2.08;;
38557;SDS011;24333;42.626;23.308;2023-08-01T16:12:25;4.57;;;2.00;;
38557;SDS011;24333;42.626;23.308;2023-08-01T16:14:51;3.72;;;1.90;;
38557;SDS011;24333;42.626;23.308;2023-08-01T16:17:16;2.33;;;1.60;;
38557;SDS011;24333;42.626;23.308;2023-08-01T16:19:41;2.22;;;1.70;;
38557;SDS011;24333;42.626;23.308;2023-08-01T16:22:07;3.17;;;1.80;;
38557;SDS011;24333;42.626;23.308;2023-08-01T16:24:33;3.10;;;1.90;;
38557;SDS011;24333;42.626;23.308;2023-08-01T16:26:58;2.28;;;1.45;;
38557;SDS011;24333;42.626;23.308;2023-08-01T16:29:23;2.20;;;1.58;;
38557;SDS011;24333;42.626;23.308;2023-08-01T16:31:49;2.33;;;1.30;;
38557;SDS011;24333;42.626;23.308;2023-08-01T16:34:14;2.70;;;1.55;;
38557;SDS011;24333;42.626;23.308;2023-08-01T16:36:39;2.35;;;1.60;;
38557;SDS011;24333;42.626;23.308;2023-08-01T16:39:05;2.60;;;1.50;;
38557;SDS011;24333;42.626;23.308;2023-08-01T16:41:31;4.25;;;1.63;;
38557;SDS011;24333;42.626;23.308;2023-08-01T16:43:56;2.63;;;1.75;;
38557;SDS011;24333;42.626;23.308;2023-08-01T16:46:21;2.97;;;1.75;;
38557;SDS011;24333;42.626;23.308;2023-08-01T16:48:47;2.25;;;1.58;;
38557;SDS011;24333;42.626;23.308;2023-08-01T16:51:12;1.90;;;1.30;;
38557;SDS011;24333;42.626;23.308;2023-08-01T16:53:37;2.65;;;1.40;;
38557;SDS011;24333;42.626;23.308;2023-08-01T16:56:03;2.97;;;1.58;;
38557;SDS011;24333;42.626;23.308;2023-08-01T16:58:28;5.97;;;2.60;;
38557;SDS011;24333;42.626;23.308;2023-08-01T17:00:54;6.90;;;2.22;;
38557;SDS011;24333;42.626;23.308;2023-08-01T17:03:19;2.95;;;2.00;;
38557;SDS011;24333;42.626;23.308;2023-08-01T17:05:44;3.63;;;2.15;;
38557;SDS011;24333;42.626;23.308;2023-08-01T17:08:10;4.45;;;2.38;;
38557;SDS011;24333;42.626;23.308;2023-08-01T17:10:35;4.10;;;2.03;;
38557;SDS011;24333;42.626;23.308;2023-08-01T17:13:00;3.08;;;1.73;;
38557;SDS011;24333;42.626;23.308;2023-08-01T17:15:26;3.00;;;1.85;;
38557;SDS011;24333;42.626;23.308;2023-08-01T17:17:52;4.75;;;2.60;;
38557;SDS011;24333;42.626;23.308;2023-08-01T17:20:18;4.82;;;2.00;;
38557;SDS011;24333;42.626;23.308;2023-08-01T17:22:43;2.22;;;1.50;;
38557;SDS011;24333;42.626;23.308;2023-08-01T17:25:09;2.75;;;1.52;;
38557;SDS011;24333;42.626;23.308;2023-08-01T17:27:34;2.55;;;1.52;;
38557;SDS011;24333;42.626;23.308;2023-08-01T17:30:00;4.03;;;1.38;;
38557;SDS011;24333;42.626;23.308;2023-08-01T17:32:27;2.08;;;1.35;;
38557;SDS011;24333;42.626;23.308;2023-08-01T17:34:55;5.15;;;1.80;;
38557;SDS011;24333;42.626;23.308;2023-08-01T17:37:21;2.58;;;1.35;;
38557;SDS011;24333;42.626;23.308;2023-08-01T17:39:47;2.65;;;1.40;;
38557;SDS011;24333;42.626;23.308;2023-08-01T17:42:18;4.40;;;1.58;;
38557;SDS011;24333;42.626;23.308;2023-08-01T17:44:43;3.45;;;1.40;;
38557;SDS011;24333;42.626;23.308;2023-08-01T17:47:09;3.63;;;1.77;;
38557;SDS011;24333;42.626;23.308;2023-08-01T17:49:35;3.05;;;1.88;;
38557;SDS011;24333;42.626;23.308;2023-08-01T17:52:00;2.28;;;1.38;;
38557;SDS011;24333;42.626;23.308;2023-08-01T17:54:32;2.67;;;1.50;;
38557;SDS011;24333;42.626;23.308;2023-08-01T17:56:57;2.90;;;1.67;;
38557;SDS011;24333;42.626;23.308;2023-08-01T17:59:23;3.00;;;1.70;;
38557;SDS011;24333;42.626;23.308;2023-08-01T18:01:48;6.45;;;1.65;;
38557;SDS011;24333;42.626;23.308;2023-08-01T18:04:13;3.53;;;1.95;;
38557;SDS011;24333;42.626;23.308;2023-08-01T18:06:39;2.25;;;1.50;;
38557;SDS011;24333;42.626;23.308;2023-08-01T18:09:04;3.05;;;2.00;;
38557;SDS011;24333;42.626;23.308;2023-08-01T18:11:31;2.47;;;1.42;;
38557;SDS011;24333;42.626;23.308;2023-08-01T18:13:56;2.78;;;1.65;;
38557;SDS011;24333;42.626;23.308;2023-08-01T18:16:27;3.33;;;1.60;;
38557;SDS011;24333;42.626;23.308;2023-08-01T18:18:53;2.88;;;1.80;;
38557;SDS011;24333;42.626;23.308;2023-08-01T18:29:57;3.00;;;1.30;;
38557;SDS011;24333;42.626;23.308;2023-08-01T18:32:22;2.25;;;1.50;;
38557;SDS011;24333;42.626;23.308;2023-08-01T18:34:48;3.25;;;1.70;;
38557;SDS011;24333;42.626;23.308;2023-08-01T18:37:13;2.55;;;1.83;;
38557;SDS011;24333;42.626;23.308;2023-08-01T18:39:38;1.90;;;1.30;;
38557;SDS011;24333;42.626;23.308;2023-08-01T18:42:04;3.15;;;1.50;;
38557;SDS011;24333;42.626;23.308;2023-08-01T18:44:29;2.45;;;1.40;;
38557;SDS011;24333;42.626;23.308;2023-08-01T18:46:55;3.38;;;1.92;;
38557;SDS011;24333;42.626;23.308;2023-08-01T18:49:20;4.38;;;1.92;;
38557;SDS011;24333;42.626;23.308;2023-08-01T18:51:45;2.67;;;1.80;;
38557;SDS011;24333;42.626;23.308;2023-08-01T18:54:11;2.58;;;1.50;;
38557;SDS011;24333;42.626;23.308;2023-08-01T18:56:38;2.78;;;1.65;;
38557;SDS011;24333;42.626;23.308;2023-08-01T18:59:03;2.08;;;1.38;;
38557;SDS011;24333;42.626;23.308;2023-08-01T19:01:29;2.53;;;1.50;;
38557;SDS011;24333;42.626;23.308;2023-08-01T19:03:55;3.45;;;1.73;;
38557;SDS011;24333;42.626;23.308;2023-08-01T19:06:22;2.45;;;1.30;;
38557;SDS011;24333;42.626;23.308;2023-08-01T19:08:49;4.65;;;1.67;;
38557;SDS011;24333;42.626;23.308;2023-08-01T19:11:14;2.55;;;1.90;;
38557;SDS011;24333;42.626;23.308;2023-08-01T19:13:39;2.35;;;1.50;;
38557;SDS011;24333;42.626;23.308;2023-08-01T19:16:06;2.75;;;1.63;;
38557;SDS011;24333;42.626;23.308;2023-08-01T19:18:31;3.03;;;1.92;;
38557;SDS011;24333;42.626;23.308;2023-08-01T19:20:57;2.78;;;1.52;;
38557;SDS011;24333;42.626;23.308;2023-08-01T19:23:24;2.33;;;1.42;;
38557;SDS011;24333;42.626;23.308;2023-08-01T19:25:49;3.28;;;1.88;;
38557;SDS011;24333;42.626;23.308;2023-08-01T19:28:15;3.47;;;2.00;;
38557;SDS011;24333;42.626;23.308;2023-08-01T19:30:40;3.50;;;1.85;;
38557;SDS011;24333;42.626;23.308;2023-08-01T19:33:06;4.63;;;1.63;;
38557;SDS011;24333;42.626;23.308;2023-08-01T19:35:32;2.08;;;1.52;;
38557;SDS011;24333;42.626;23.308;2023-08-01T19:38:04;1.98;;;1.60;;
38557;SDS011;24333;42.626;23.308;2023-08-01T19:40:29;2.00;;;1.40;;
38557;SDS011;24333;42.626;23.308;2023-08-01T19:42:55;4.00;;;1.67;;
38557;SDS011;24333;42.626;23.308;2023-08-01T19:45:20;3.47;;;1.63;;
38557;SDS011;24333;42.626;23.308;2023-08-01T19:47:46;3.25;;;1.67;;
38557;SDS011;24333;42.626;23.308;2023-08-01T19:50:11;3.78;;;1.80;;
38557;SDS011;24333;42.626;23.308;2023-08-01T19:52:37;2.28;;;1.60;;
38557;SDS011;24333;42.626;23.308;2023-08-01T19:55:03;3.22;;;1.83;;
38557;SDS011;24333;42.626;23.308;2023-08-01T19:57:30;2.97;;;1.67;;
38557;SDS011;24333;42.626;23.308;2023-08-01T19:59:56;4.50;;;2.00;;